createdAt,value
2019-01-25T00:01:23.784Z,22.62
2019-01-25T00:03:54.760Z,22.57
2019-01-25T00:06:26.698Z,21.90
2019-01-25T00:08:58.054Z,22.23
2019-01-25T00:11:29.440Z,21.10
2019-01-25T00:14:02.291Z,22.47
2019-01-25T00:16:33.642Z,22.70
2019-01-25T00:19:04.860Z,22.70
2019-01-25T00:21:36.618Z,22.73
2019-01-25T00:24:10.637Z,23.13
2019-01-25T00:26:42.016Z,22.40
2019-01-25T00:29:13.028Z,22.55
2019-01-25T00:31:44.290Z,21.77
2019-01-25T00:34:15.296Z,21.53
2019-01-25T00:36:46.707Z,21.73
2019-01-25T00:39:19.027Z,22.20
2019-01-25T00:41:50.484Z,21.57
2019-01-25T00:44:22.600Z,20.50
2019-01-25T00:46:53.905Z,21.20
2019-01-25T00:49:25.232Z,21.40
2019-01-25T00:51:56.398Z,22.17
2019-01-25T00:54:27.850Z,21.62
2019-01-25T00:56:59.058Z,21.37
2019-01-25T00:59:30.755Z,21.63
2019-01-25T01:02:03.219Z,21.80
2019-01-25T01:04:35.966Z,22.97
2019-01-25T01:07:07.316Z,21.40
2019-01-25T01:09:38.716Z,20.50
2019-01-25T01:12:09.833Z,21.63
2019-01-25T01:14:42.047Z,20.17
2019-01-25T01:17:13.861Z,20.97
2019-01-25T01:19:45.959Z,20.63
2019-01-25T01:22:17.081Z,20.05
2019-01-25T01:24:48.288Z,20.77
2019-01-25T01:27:19.714Z,20.47
2019-01-25T01:29:51.033Z,21.05
2019-01-25T01:32:22.165Z,20.80
2019-01-25T01:34:54.129Z,21.70
2019-01-25T01:37:26.449Z,20.97
2019-01-25T01:39:57.967Z,20.23
2019-01-25T01:42:30.533Z,21.33
2019-01-25T01:45:02.505Z,21.97
2019-01-25T01:47:33.754Z,21.62
2019-01-25T01:50:07.587Z,21.10
2019-01-25T01:52:38.912Z,21.37
2019-01-25T01:55:11.483Z,20.90
2019-01-25T01:57:46.255Z,20.80
2019-01-25T02:00:28.883Z,21.37
2019-01-25T02:03:00.354Z,20.23
2019-01-25T02:05:32.800Z,22.53
2019-01-25T02:08:04.118Z,22.45
2019-01-25T02:10:35.832Z,21.60
2019-01-25T02:13:07.200Z,21.55
2019-01-25T02:15:38.572Z,23.43
2019-01-25T02:18:10.783Z,22.85
2019-01-25T02:20:41.975Z,22.30
2019-01-25T02:23:14.042Z,21.37
2019-01-25T02:25:45.653Z,22.37
2019-01-25T02:28:16.790Z,21.27
2019-01-25T02:30:48.040Z,22.03
2019-01-25T02:33:19.282Z,21.62
2019-01-25T02:35:50.722Z,20.13
2019-01-25T02:38:21.931Z,21.60
2019-01-25T02:40:53.046Z,21.07
2019-01-25T02:43:24.389Z,20.17
2019-01-25T02:45:55.752Z,19.87
2019-01-25T02:48:27.006Z,20.07
2019-01-25T02:50:58.615Z,20.43
2019-01-25T02:53:29.830Z,20.67
2019-01-25T02:56:01.313Z,21.00
2019-01-25T02:58:33.111Z,21.03
2019-01-25T03:01:04.754Z,21.37
2019-01-25T03:03:36.796Z,21.37
2019-01-25T03:06:08.087Z,20.30
2019-01-25T03:08:39.450Z,20.67
2019-01-25T03:11:10.854Z,20.77
2019-01-25T03:13:43.770Z,21.57
2019-01-25T03:16:15.039Z,21.50
2019-01-25T03:18:46.284Z,20.50
2019-01-25T03:21:17.508Z,20.32
2019-01-25T03:23:48.617Z,21.10
2019-01-25T03:26:20.288Z,20.20
2019-01-25T03:28:51.550Z,22.47
2019-01-25T03:31:22.852Z,22.22
2019-01-25T03:33:54.231Z,22.20
2019-01-25T03:36:26.492Z,20.40
2019-01-25T03:38:57.679Z,20.37
2019-01-25T03:41:29.271Z,20.48
2019-01-25T03:44:00.443Z,21.13
2019-01-25T03:46:33.236Z,20.13
2019-01-25T03:49:04.412Z,20.27
2019-01-25T03:51:36.374Z,21.00
2019-01-25T03:54:08.720Z,19.80
2019-01-25T03:56:41.319Z,20.00
2019-01-25T03:59:12.602Z,20.23
2019-01-25T04:01:45.185Z,21.00
2019-01-25T04:04:16.479Z,21.68
2019-01-25T04:06:47.852Z,20.88
2019-01-25T04:09:19.342Z,22.37
2019-01-25T04:11:50.661Z,21.87
2019-01-25T04:14:21.993Z,22.07
2019-01-25T04:16:53.399Z,21.63
2019-01-25T04:19:25.298Z,20.40
2019-01-25T04:21:56.474Z,20.33
2019-01-25T04:24:28.087Z,21.47
2019-01-25T04:26:59.394Z,21.13
2019-01-25T04:29:30.701Z,21.03
2019-01-25T04:32:02.094Z,20.87
2019-01-25T04:34:33.491Z,21.33
2019-01-25T04:37:06.339Z,19.92
2019-01-25T04:39:37.687Z,20.60
2019-01-25T04:42:08.889Z,19.80
2019-01-25T04:44:41.150Z,21.40
2019-01-25T04:47:13.245Z,21.35
2019-01-25T04:49:46.298Z,19.83
2019-01-25T04:52:17.428Z,21.00
2019-01-25T04:54:48.724Z,19.43
2019-01-25T04:57:19.839Z,20.77
2019-01-25T04:59:51.129Z,21.60
2019-01-25T05:02:22.265Z,21.77
2019-01-25T05:04:53.514Z,22.10
2019-01-25T05:07:24.638Z,20.57
2019-01-25T05:09:55.790Z,21.77
2019-01-25T05:12:29.014Z,21.43
2019-01-25T05:15:00.189Z,20.83
2019-01-25T05:17:31.630Z,22.37
2019-01-25T05:20:03.076Z,21.15
2019-01-25T05:22:34.201Z,22.57
2019-01-25T05:25:07.632Z,21.27
2019-01-25T05:27:38.955Z,21.30
2019-01-25T05:30:11.783Z,21.30
2019-01-25T05:32:42.995Z,21.80
2019-01-25T05:35:15.807Z,22.27
2019-01-25T05:37:47.165Z,23.80
2019-01-25T05:40:24.503Z,23.27
2019-01-25T05:42:55.680Z,24.43
2019-01-25T05:45:26.699Z,22.47
2019-01-25T05:47:58.199Z,22.73
2019-01-25T05:50:29.662Z,23.63
2019-01-25T05:53:00.919Z,21.77
2019-01-25T05:55:32.212Z,21.70
2019-01-25T05:58:04.508Z,23.23
2019-01-25T06:00:40.028Z,22.77
2019-01-25T06:03:13.280Z,24.77
2019-01-25T06:05:45.189Z,24.50
2019-01-25T06:08:33.964Z,23.92
2019-01-25T06:11:10.650Z,25.12
2019-01-25T06:13:46.221Z,22.63
2019-01-25T06:16:18.169Z,24.63
2019-01-25T06:18:49.334Z,24.17
2019-01-25T06:21:20.612Z,23.98
2019-01-25T06:23:55.152Z,27.57
2019-01-25T06:26:26.694Z,28.67
2019-01-25T06:28:57.954Z,27.67
2019-01-25T06:31:29.730Z,22.67
2019-01-25T06:34:03.608Z,23.87
2019-01-25T06:36:34.901Z,23.77
2019-01-25T06:39:09.231Z,22.60
2019-01-25T06:41:44.184Z,22.33
2019-01-25T06:44:13.675Z,22.65
2019-01-25T06:46:44.830Z,23.43
2019-01-25T06:49:17.080Z,22.60
2019-01-25T06:51:48.568Z,23.37
2019-01-25T06:54:19.775Z,24.95
2019-01-25T06:56:51.143Z,23.43
2019-01-25T06:59:25.376Z,24.43
2019-01-25T07:02:04.608Z,22.60
2019-01-25T07:04:35.806Z,26.03
2019-01-25T07:07:15.036Z,25.23
2019-01-25T07:09:46.662Z,24.93
2019-01-25T07:12:18.517Z,23.00
2019-01-25T07:14:49.816Z,24.00
2019-01-25T07:17:22.655Z,24.60
2019-01-25T07:19:54.160Z,24.20
2019-01-25T07:22:25.685Z,25.50
2019-01-25T07:24:58.718Z,24.17
2019-01-25T07:27:31.684Z,25.75
2019-01-25T07:30:02.867Z,24.47
2019-01-25T07:32:35.330Z,24.50
2019-01-25T07:35:07.641Z,25.57
2019-01-25T07:37:39.085Z,26.07
2019-01-25T07:40:10.331Z,27.80
2019-01-25T07:42:42.313Z,25.83
2019-01-25T07:45:14.103Z,25.20
2019-01-25T07:47:45.427Z,24.30
2019-01-25T07:50:16.797Z,24.18
2019-01-25T07:52:48.427Z,26.07
2019-01-25T08:10:27.522Z,27.33
2019-01-25T08:12:58.931Z,28.33
2019-01-25T08:15:30.650Z,27.67
2019-01-25T08:18:01.794Z,27.37
2019-01-25T08:20:33.136Z,25.70
2019-01-25T08:23:04.775Z,25.57
2019-01-25T08:25:37.479Z,28.00
2019-01-25T08:28:09.266Z,29.33
2019-01-25T08:30:40.725Z,30.67
2019-01-25T08:33:12.281Z,30.60
2019-01-25T08:35:43.618Z,28.27
2019-01-25T08:38:15.366Z,28.00
2019-01-25T08:40:46.473Z,29.33
2019-01-25T08:43:17.817Z,29.30
2019-01-25T08:45:50.381Z,28.47
2019-01-25T08:48:22.215Z,26.37
2019-01-25T08:50:53.616Z,25.73
2019-01-25T08:53:24.997Z,28.47
2019-01-25T08:55:57.587Z,26.83
2019-01-25T08:58:28.897Z,26.80
2019-01-25T09:01:00.359Z,27.70
2019-01-25T09:03:32.087Z,29.63
2019-01-25T09:06:03.615Z,29.53
2019-01-25T09:08:35.063Z,30.20
2019-01-25T09:11:06.469Z,29.67
2019-01-25T09:13:37.819Z,30.07
2019-01-25T09:16:11.521Z,30.60
2019-01-25T09:18:42.781Z,31.07
2019-01-25T09:21:14.137Z,29.53
2019-01-25T09:23:46.833Z,30.43
2019-01-25T09:26:18.172Z,28.97
2019-01-25T09:28:50.056Z,28.87
2019-01-25T09:31:21.329Z,29.97
2019-01-25T09:33:52.748Z,30.37
2019-01-25T09:36:26.116Z,29.63
2019-01-25T09:38:57.628Z,31.03
2019-01-25T09:41:29.659Z,30.37
2019-01-25T09:44:01.285Z,31.30
2019-01-25T09:46:32.360Z,31.57
2019-01-25T09:49:03.949Z,30.77
2019-01-25T09:51:36.714Z,31.83
2019-01-25T09:54:07.980Z,31.50
2019-01-25T09:56:39.266Z,32.30
2019-01-25T09:59:10.541Z,32.47
2019-01-25T10:01:41.832Z,31.80
2019-01-25T10:04:13.413Z,32.37
2019-01-25T10:06:44.842Z,31.60
2019-01-25T10:09:16.006Z,32.67
2019-01-25T10:11:47.097Z,32.00
2019-01-25T10:14:19.785Z,33.90
2019-01-25T10:16:50.905Z,31.90
2019-01-25T10:19:22.169Z,32.87
2019-01-25T10:21:53.426Z,32.80
2019-01-25T10:24:24.891Z,33.90
2019-01-25T10:26:57.531Z,33.23
2019-01-25T10:29:30.963Z,34.77
2019-01-25T10:32:02.395Z,34.03
2019-01-25T10:34:33.506Z,33.87
2019-01-25T10:37:05.308Z,33.87
2019-01-25T10:39:37.453Z,32.30
2019-01-25T10:42:08.639Z,32.27
2019-01-25T10:44:41.705Z,31.83
2019-01-25T10:47:12.808Z,32.90
2019-01-25T10:49:44.141Z,32.53
2019-01-25T10:52:15.542Z,33.13
2019-01-25T10:54:46.780Z,30.57
2019-01-25T10:57:18.664Z,31.13
2019-01-25T10:59:49.995Z,30.97
2019-01-25T11:02:21.147Z,31.60
2019-01-25T11:04:52.335Z,32.37
2019-01-25T11:07:23.507Z,31.87
2019-01-25T11:09:54.650Z,32.87
2019-01-25T11:12:25.911Z,33.87
2019-01-25T11:14:57.717Z,31.83
2019-01-25T11:17:36.251Z,32.93
2019-01-25T11:20:02.215Z,33.13
2019-01-25T11:22:33.827Z,32.93
2019-01-25T11:25:06.128Z,35.10
2019-01-25T11:27:38.673Z,34.43
2019-01-25T11:33:27.104Z,36.83
2019-01-25T11:36:00.161Z,35.10
2019-01-25T11:38:31.798Z,36.43
2019-01-25T11:41:03.182Z,35.67
2019-01-25T11:43:34.546Z,36.07
2019-01-25T11:46:05.861Z,35.33
2019-01-25T11:48:37.951Z,33.87
2019-01-25T11:51:08.994Z,34.37
2019-01-25T11:53:42.617Z,34.13
2019-01-25T11:56:13.992Z,34.63
2019-01-25T11:58:45.238Z,33.97
2019-01-25T12:01:16.587Z,35.13
2019-01-25T12:03:47.730Z,34.47
2019-01-25T12:06:18.993Z,33.23
2019-01-25T12:08:51.592Z,34.47
2019-01-25T12:11:22.951Z,34.10
2019-01-25T12:13:53.986Z,34.27
2019-01-25T12:16:25.071Z,36.00
2019-01-25T12:18:56.551Z,36.47
2019-01-25T12:21:27.632Z,33.77
2019-01-25T12:23:58.625Z,35.77
2019-01-25T12:26:30.093Z,36.97
2019-01-25T12:29:02.689Z,38.17
2019-01-25T12:31:34.191Z,38.10
2019-01-25T12:34:05.996Z,36.10
2019-01-25T12:36:37.827Z,38.57
2019-01-25T12:39:10.122Z,37.50
2019-01-25T12:41:41.833Z,38.60
2019-01-25T12:44:13.089Z,39.37
2019-01-25T12:46:44.201Z,42.03
2019-01-25T12:49:17.400Z,43.27
2019-01-25T12:51:58.612Z,43.13
2019-01-25T12:54:29.987Z,43.53
2019-01-25T12:57:01.706Z,43.17
2019-01-25T12:59:32.760Z,43.10
2019-01-25T13:02:03.999Z,41.63
2019-01-25T13:04:36.787Z,40.87
2019-01-25T13:07:10.379Z,45.70
2019-01-25T13:09:41.669Z,44.00
2019-01-25T13:12:12.983Z,43.57
2019-01-25T13:14:44.358Z,42.77
2019-01-25T13:17:15.505Z,42.37
2019-01-25T13:19:47.578Z,46.37
2019-01-25T13:22:18.811Z,43.03
2019-01-25T13:24:50.012Z,44.40
2019-01-25T13:27:21.289Z,44.50
2019-01-25T13:29:52.397Z,44.73
2019-01-25T13:32:23.639Z,44.83
2019-01-25T13:34:55.068Z,43.87
2019-01-25T13:37:31.314Z,43.13
2019-01-25T13:39:59.389Z,43.13
2019-01-25T13:42:30.445Z,44.60
2019-01-25T13:45:02.666Z,43.70
2019-01-25T13:47:33.857Z,45.57
2019-01-25T13:50:06.520Z,45.33
2019-01-25T13:52:37.872Z,46.90
2019-01-25T13:55:11.552Z,45.47
2019-01-25T13:57:44.107Z,48.60
2019-01-25T14:00:24.636Z,46.70
2019-01-25T14:02:56.004Z,46.07
2019-01-25T14:05:29.116Z,46.27
2019-01-25T14:08:01.713Z,46.47
2019-01-25T14:10:34.935Z,46.43
2019-01-25T14:13:06.868Z,43.80
2019-01-25T14:15:38.144Z,41.20
2019-01-25T14:18:09.151Z,35.00
2019-01-25T14:20:40.297Z,37.77
2019-01-25T14:23:11.437Z,39.07
2019-01-25T14:25:42.629Z,37.23
2019-01-25T14:28:15.339Z,38.57
2019-01-25T14:30:46.503Z,37.67
2019-01-25T14:33:17.955Z,36.77
2019-01-25T14:35:49.330Z,36.70
2019-01-25T14:38:20.803Z,35.07
2019-01-25T14:40:53.138Z,36.57
2019-01-25T14:43:24.777Z,37.27
2019-01-25T14:45:56.747Z,37.00
2019-01-25T14:48:28.189Z,38.67
2019-01-25T14:51:00.019Z,38.47
2019-01-25T14:53:31.697Z,38.20
2019-01-25T14:56:03.657Z,38.23
2019-01-25T14:58:34.817Z,39.60
2019-01-25T15:01:06.012Z,38.23
2019-01-25T15:03:37.444Z,40.57
2019-01-25T15:06:09.010Z,41.13
2019-01-25T15:08:40.370Z,42.13
2019-01-25T15:11:11.567Z,40.97
2019-01-25T15:13:43.045Z,43.17
2019-01-25T15:16:14.003Z,42.90
2019-01-25T15:18:46.741Z,43.50
2019-01-25T15:21:18.831Z,44.43
2019-01-25T15:23:50.250Z,43.60
2019-01-25T15:26:21.286Z,41.77
2019-01-25T15:28:52.449Z,42.27
2019-01-25T15:31:24.435Z,42.13
2019-01-25T15:33:55.633Z,43.40
2019-01-25T15:36:27.160Z,43.73
2019-01-25T15:38:59.084Z,43.23
2019-01-25T15:41:30.322Z,42.37
2019-01-25T15:44:01.770Z,42.97
2019-01-25T15:46:35.845Z,43.73
2019-01-25T15:49:07.807Z,44.93
2019-01-25T15:51:38.917Z,45.33
2019-01-25T15:54:10.085Z,43.80
2019-01-25T15:56:41.492Z,45.53
2019-01-25T15:59:12.580Z,45.13
2019-01-25T16:01:43.890Z,45.33
2019-01-25T16:04:16.899Z,46.33
2019-01-25T16:06:49.724Z,45.60
2019-01-25T16:09:23.673Z,46.13
2019-01-25T16:11:56.696Z,47.97
2019-01-25T16:14:30.545Z,47.37
2019-01-25T16:17:02.193Z,47.27
2019-01-25T16:19:33.228Z,48.97
2019-01-25T16:22:04.674Z,47.53
2019-01-25T16:24:35.817Z,48.80
2019-01-25T16:27:07.187Z,48.80
2019-01-25T16:29:38.294Z,49.67
2019-01-25T16:32:09.644Z,49.20
2019-01-25T16:34:41.807Z,51.17
2019-01-25T16:37:14.124Z,49.07
2019-01-25T16:39:45.378Z,52.40
2019-01-25T16:42:19.250Z,51.67
2019-01-25T16:44:50.403Z,52.00
2019-01-25T16:47:21.639Z,50.60
2019-01-25T16:49:52.793Z,51.07
2019-01-25T16:52:23.854Z,50.77
2019-01-25T16:54:55.042Z,50.63
2019-01-25T16:57:26.208Z,51.47
2019-01-25T16:59:59.631Z,53.17
2019-01-25T17:02:30.624Z,53.50
2019-01-25T17:05:03.595Z,53.60
2019-01-25T17:07:34.929Z,54.20
2019-01-25T17:10:08.669Z,52.80
2019-01-25T17:12:39.731Z,55.17
2019-01-25T17:15:11.160Z,52.40
2019-01-25T17:17:42.168Z,54.77
2019-01-25T17:20:19.120Z,54.43
2019-01-25T17:22:48.497Z,54.97
2019-01-25T17:25:19.821Z,56.87
2019-01-25T17:27:52.779Z,58.40
2019-01-25T17:30:26.046Z,58.30
2019-01-25T17:32:58.536Z,60.33
2019-01-25T17:35:31.508Z,60.40
2019-01-25T17:38:03.280Z,62.03
2019-01-25T17:40:46.684Z,65.10
2019-01-25T17:43:18.379Z,65.03
2019-01-25T17:45:50.183Z,67.13
2019-01-25T17:48:21.373Z,67.43
2019-01-25T17:50:52.607Z,71.50
2019-01-25T17:53:23.861Z,69.53
2019-01-25T17:55:54.954Z,68.50
2019-01-25T17:58:26.954Z,70.03
2019-01-25T18:00:58.445Z,69.70
2019-01-25T18:03:31.119Z,71.47
2019-01-25T18:06:03.642Z,68.77
2019-01-25T18:08:35.050Z,70.40
2019-01-25T18:11:06.496Z,69.53
2019-01-25T18:13:37.988Z,70.70
2019-01-25T18:16:09.310Z,66.47
2019-01-25T18:18:42.286Z,67.67
2019-01-25T18:21:13.285Z,68.13
2019-01-25T18:23:44.569Z,67.37
2019-01-25T18:26:25.840Z,64.63
2019-01-25T18:29:19.918Z,66.07
2019-01-25T18:31:50.956Z,62.30
2019-01-25T18:34:22.193Z,65.87
2019-01-25T18:36:53.355Z,63.57
2019-01-25T18:39:25.764Z,64.50
2019-01-25T18:41:56.938Z,63.77
2019-01-25T18:44:27.954Z,64.33
2019-01-25T18:47:00.005Z,63.87
2019-01-25T18:49:31.076Z,62.83
2019-01-25T18:52:02.369Z,63.23
2019-01-25T18:54:33.334Z,62.07
2019-01-25T18:57:04.539Z,62.50
2019-01-25T18:59:35.988Z,60.20
2019-01-25T19:02:07.373Z,61.93
2019-01-25T19:04:39.070Z,60.97
2019-01-25T19:07:10.334Z,60.17
2019-01-25T19:09:41.425Z,60.10
2019-01-25T19:12:12.746Z,59.97
2019-01-25T19:14:43.986Z,58.90
2019-01-25T19:17:15.992Z,59.50
2019-01-25T19:19:47.087Z,58.17
2019-01-25T19:22:19.635Z,59.00
2019-01-25T19:24:51.144Z,54.93
2019-01-25T19:27:22.450Z,58.23
2019-01-25T19:29:53.655Z,58.50
2019-01-25T19:32:24.990Z,59.13
2019-01-25T19:34:55.978Z,59.13
2019-01-25T19:37:30.049Z,55.10
2019-01-25T19:40:01.540Z,58.80
2019-01-25T19:42:33.268Z,59.17
2019-01-25T19:45:11.703Z,59.30
2019-01-25T19:47:38.851Z,59.30
2019-01-25T19:50:12.647Z,58.17
2019-01-25T19:52:44.249Z,55.10
2019-01-25T19:55:18.306Z,57.23
2019-01-25T19:57:49.312Z,55.77
2019-01-25T20:00:23.426Z,57.50
2019-01-25T20:02:54.788Z,55.43
2019-01-25T20:05:27.206Z,56.10
2019-01-25T20:07:58.619Z,56.20
2019-01-25T20:10:29.896Z,53.80
2019-01-25T20:13:01.597Z,54.07
2019-01-25T20:15:33.106Z,55.60
2019-01-25T20:18:04.836Z,53.37
2019-01-25T20:20:36.445Z,52.67
2019-01-25T20:23:08.143Z,54.87
2019-01-25T20:25:40.703Z,55.70
2019-01-25T20:28:12.187Z,53.23
2019-01-25T20:30:49.560Z,52.77
2019-01-25T20:33:17.497Z,52.27
2019-01-25T20:35:48.855Z,51.60
2019-01-25T20:38:21.397Z,51.87
2019-01-25T20:40:52.684Z,51.17
2019-01-25T20:43:24.193Z,50.70
2019-01-25T20:45:55.363Z,50.30
2019-01-25T20:48:27.963Z,47.13
2019-01-25T20:50:59.264Z,49.63
2019-01-25T20:53:31.857Z,40.93
2019-01-25T20:56:02.974Z,37.30
2019-01-25T20:58:34.282Z,46.73
2019-01-25T21:01:05.596Z,48.40
2019-01-25T21:03:37.019Z,40.43
2019-01-25T21:06:09.705Z,40.57
2019-01-25T21:08:40.865Z,40.63
2019-01-25T21:11:12.024Z,38.23
2019-01-25T21:13:43.566Z,38.20
2019-01-25T21:16:14.916Z,39.17
2019-01-25T21:18:46.437Z,39.37
2019-01-25T21:21:18.162Z,38.77
2019-01-25T21:23:49.240Z,39.23
2019-01-25T21:26:21.435Z,40.37
2019-01-25T21:28:53.796Z,40.80
2019-01-25T21:31:25.388Z,40.33
2019-01-25T21:33:56.364Z,40.97
2019-01-25T21:36:27.501Z,41.93
2019-01-25T21:38:58.849Z,41.80
2019-01-25T21:41:30.051Z,42.43
2019-01-25T21:44:01.166Z,41.30
2019-01-25T21:46:39.833Z,42.33
2019-01-25T21:49:05.422Z,42.27
2019-01-25T21:51:36.730Z,41.30
2019-01-25T21:54:08.991Z,44.50
2019-01-25T21:56:40.100Z,44.30
2019-01-25T21:59:11.600Z,45.63
2019-01-25T22:01:42.750Z,44.10
2019-01-25T22:04:14.831Z,44.87
2019-01-25T22:06:47.143Z,47.63
2019-01-25T22:09:18.430Z,47.70
2019-01-25T22:11:49.653Z,49.23
2019-01-25T22:14:21.223Z,50.07
2019-01-25T22:16:53.633Z,49.67
2019-01-25T22:19:24.883Z,51.10
2019-01-25T22:21:56.193Z,50.13
2019-01-25T22:24:29.104Z,52.13
2019-01-25T22:27:00.922Z,51.80
2019-01-25T22:29:32.663Z,52.37
2019-01-25T22:32:03.826Z,51.43
2019-01-25T22:34:35.137Z,51.40
2019-01-25T22:37:06.541Z,52.73
2019-01-25T22:39:38.941Z,54.60
2019-01-25T22:42:10.381Z,53.43
2019-01-25T22:44:42.941Z,54.60
2019-01-25T22:47:20.237Z,53.17
2019-01-25T22:49:47.048Z,54.27
2019-01-25T22:52:18.266Z,53.57
2019-01-25T22:54:49.488Z,57.27
2019-01-25T22:57:20.613Z,56.43
2019-01-25T22:59:51.798Z,55.63
2019-01-25T23:02:23.160Z,57.27
2019-01-25T23:05:05.956Z,57.70
2019-01-25T23:07:37.165Z,56.03
2019-01-25T23:10:16.893Z,57.70
2019-01-25T23:12:48.508Z,60.50
2019-01-25T23:15:21.656Z,61.43
2019-01-25T23:17:52.591Z,62.93
2019-01-25T23:20:23.592Z,62.13
2019-01-25T23:22:54.671Z,62.73
2019-01-25T23:25:26.155Z,64.17
2019-01-25T23:27:57.270Z,62.67
2019-01-25T23:30:28.331Z,65.80
2019-01-25T23:32:59.455Z,65.23
2019-01-25T23:35:30.626Z,66.70
2019-01-25T23:38:02.185Z,65.07
2019-01-25T23:40:34.792Z,66.80
2019-01-25T23:43:07.070Z,67.27
2019-01-25T23:45:38.650Z,71.10
2019-01-25T23:48:09.769Z,70.57
2019-01-25T23:50:42.687Z,70.47
2019-01-25T23:53:13.734Z,67.73
2019-01-25T23:55:44.752Z,70.13
2019-01-25T23:58:16.269Z,67.03
